createdAt,value
2022-10-04T00:02:03.094Z,23.60
2022-10-04T00:06:12.573Z,13.10
2022-10-04T00:10:22.218Z,13.05
2022-10-04T00:14:32.448Z,12.55
2022-10-04T00:18:40.532Z,12.73
2022-10-04T00:23:20.556Z,13.27
2022-10-04T00:27:25.290Z,12.38
2022-10-04T00:31:29.223Z,11.23
2022-10-04T00:35:31.153Z,11.05
2022-10-04T00:39:32.723Z,10.18
2022-10-04T00:43:47.012Z,10.25
2022-10-04T00:47:48.630Z,11.15
2022-10-04T00:51:56.215Z,10.77
2022-10-04T00:56:05.081Z,10.20
2022-10-04T01:00:19.199Z,10.80
2022-10-04T01:04:39.417Z,11.50
2022-10-04T01:08:49.408Z,10.02
2022-10-04T01:13:07.997Z,8.52
2022-10-04T01:17:10.019Z,10.60
2022-10-04T01:21:20.948Z,9.50
2022-10-04T01:25:50.997Z,8.95
2022-10-04T01:29:52.839Z,7.75
2022-10-04T01:33:55.727Z,9.15
2022-10-04T01:37:57.430Z,7.95
2022-10-04T01:42:09.318Z,7.43
2022-10-04T01:46:20.486Z,7.85
2022-10-04T01:50:37.677Z,7.30
2022-10-04T01:54:44.899Z,6.88
2022-10-04T01:58:52.353Z,6.90
2022-10-04T02:03:04.956Z,7.18
2022-10-04T02:07:15.325Z,6.28
2022-10-04T02:11:20.471Z,5.97
2022-10-04T02:15:26.778Z,7.10
2022-10-04T02:19:35.873Z,5.82
2022-10-04T02:23:39.486Z,5.55
2022-10-04T02:27:41.353Z,5.60
2022-10-04T02:32:02.712Z,5.90
2022-10-04T02:36:09.535Z,6.68
2022-10-04T02:40:21.637Z,4.97
2022-10-04T02:44:32.189Z,5.53
2022-10-04T02:48:48.471Z,5.13
2022-10-04T02:52:58.547Z,4.63
2022-10-04T02:57:01.282Z,4.00
2022-10-04T03:01:03.089Z,4.88
2022-10-04T03:05:08.667Z,4.32
2022-10-04T03:09:10.546Z,4.68
2022-10-04T03:13:13.994Z,4.40
2022-10-04T03:17:17.143Z,3.85
2022-10-04T03:27:31.168Z,3.78
2022-10-04T03:31:35.013Z,4.40
2022-10-04T03:35:39.273Z,4.88
2022-10-04T03:39:53.674Z,4.63
2022-10-04T03:43:57.890Z,4.60
2022-10-04T03:48:06.893Z,4.68
2022-10-04T03:52:21.062Z,3.67
2022-10-04T03:56:29.533Z,4.60
2022-10-04T04:04:36.342Z,5.60
2022-10-04T04:08:42.781Z,5.55
2022-10-04T04:12:55.438Z,4.97
2022-10-04T04:17:17.334Z,4.75
2022-10-04T04:21:23.669Z,5.60
2022-10-04T04:25:27.390Z,5.15
2022-10-04T04:29:42.087Z,5.35
2022-10-04T04:33:49.361Z,5.45
2022-10-04T04:38:14.399Z,5.50
2022-10-04T04:42:21.242Z,6.78
2022-10-04T04:46:27.479Z,6.50
2022-10-04T04:50:34.286Z,6.15
2022-10-04T04:54:38.907Z,5.97
2022-10-04T04:58:45.926Z,5.95
2022-10-04T05:02:58.606Z,5.28
2022-10-04T05:07:17.057Z,5.20
2022-10-04T05:11:21.589Z,5.85
2022-10-04T05:15:23.753Z,5.95
2022-10-04T05:19:40.074Z,5.32
2022-10-04T05:23:42.592Z,5.55
2022-10-04T05:27:45.131Z,5.35
2022-10-04T05:32:11.051Z,4.55
2022-10-04T05:36:13.962Z,5.50
2022-10-04T05:40:39.435Z,4.40
2022-10-04T05:44:53.909Z,5.15
2022-10-04T05:49:06.311Z,4.25
2022-10-04T05:53:20.188Z,4.90
2022-10-04T05:57:42.577Z,5.30
2022-10-04T06:02:04.770Z,4.30
2022-10-04T06:06:19.906Z,4.28
2022-10-04T06:11:05.505Z,3.70
2022-10-04T06:15:23.178Z,4.30
2022-10-04T06:19:53.659Z,3.78
2022-10-04T06:24:03.722Z,3.92
2022-10-04T06:28:28.686Z,4.10
2022-10-04T06:32:52.147Z,4.13
2022-10-04T06:37:15.766Z,3.50
2022-10-04T06:41:20.424Z,3.88
2022-10-04T06:45:31.367Z,4.30
2022-10-04T06:49:46.884Z,3.70
2022-10-04T06:53:54.604Z,3.92
2022-10-04T06:58:29.926Z,4.27
2022-10-04T07:02:40.861Z,3.78
2022-10-04T07:06:52.928Z,3.63
2022-10-04T07:10:56.853Z,3.60
2022-10-04T07:15:03.222Z,3.90
2022-10-04T07:19:17.382Z,3.70
2022-10-04T07:23:28.634Z,4.63
2022-10-04T07:28:26.522Z,3.95
2022-10-04T07:32:31.419Z,4.65
2022-10-04T07:36:48.160Z,4.03
2022-10-04T07:40:56.062Z,4.95
2022-10-04T07:45:21.481Z,4.63
2022-10-04T07:49:23.733Z,3.80
2022-10-04T07:53:28.225Z,3.97
2022-10-04T07:57:40.280Z,4.10
2022-10-04T08:01:58.109Z,3.75
2022-10-04T08:06:19.041Z,3.03
2022-10-04T08:10:31.428Z,3.50
2022-10-04T08:14:52.468Z,3.60
2022-10-04T08:19:00.144Z,3.05
2022-10-04T08:23:08.106Z,3.17
2022-10-04T08:27:29.715Z,3.27
2022-10-04T08:32:00.739Z,3.63
2022-10-04T08:36:19.757Z,3.15
2022-10-04T08:40:51.804Z,3.17
2022-10-04T08:45:34.789Z,3.10
2022-10-04T08:50:18.111Z,2.10
2022-10-04T08:55:02.442Z,2.67
2022-10-04T08:59:35.896Z,2.38
2022-10-04T09:04:35.020Z,3.45
2022-10-04T09:09:24.500Z,2.25
2022-10-04T09:13:38.509Z,2.35
2022-10-04T09:17:50.926Z,2.70
2022-10-04T09:22:16.153Z,2.50
2022-10-04T09:26:45.587Z,2.40
2022-10-04T09:31:28.546Z,1.70
2022-10-04T09:35:43.585Z,2.50
2022-10-04T09:40:16.532Z,2.00
2022-10-04T09:44:49.296Z,2.05
2022-10-04T09:49:08.819Z,2.15
2022-10-04T09:53:35.256Z,1.85
2022-10-04T09:58:13.855Z,1.98
2022-10-04T10:02:45.389Z,2.38
2022-10-04T10:07:10.430Z,2.25
2022-10-04T10:11:42.758Z,2.05
2022-10-04T10:15:59.930Z,1.80
2022-10-04T10:20:27.102Z,1.83
2022-10-04T10:24:56.173Z,2.33
2022-10-04T10:29:15.105Z,2.15
2022-10-04T10:33:54.576Z,2.10
2022-10-04T10:38:19.456Z,2.30
2022-10-04T10:42:42.923Z,2.50
2022-10-04T10:47:22.791Z,2.20
2022-10-04T10:51:34.530Z,2.10
2022-10-04T10:56:08.590Z,2.13
2022-10-04T11:00:21.108Z,2.00
2022-10-04T11:04:38.800Z,1.35
2022-10-04T11:09:17.999Z,1.83
2022-10-04T11:13:29.177Z,2.20
2022-10-04T11:18:09.229Z,1.70
2022-10-04T11:22:17.212Z,1.50
2022-10-04T11:26:37.695Z,1.83
2022-10-04T11:31:04.063Z,2.00
2022-10-04T11:35:39.385Z,1.25
2022-10-04T11:39:53.557Z,2.22
2022-10-04T11:44:22.005Z,1.60
2022-10-04T11:48:48.572Z,1.50
2022-10-04T11:53:33.538Z,1.50
2022-10-04T11:57:53.273Z,1.88
2022-10-04T12:02:17.043Z,1.80
2022-10-04T12:06:34.967Z,2.25
2022-10-04T12:11:17.645Z,1.60
2022-10-04T12:15:38.487Z,1.70
2022-10-04T12:19:58.640Z,2.20
2022-10-04T12:24:03.339Z,1.80
2022-10-04T12:28:21.527Z,1.65
2022-10-04T12:32:34.252Z,1.60
2022-10-04T12:36:54.309Z,2.15
2022-10-04T12:41:26.273Z,1.80
2022-10-04T12:45:45.238Z,1.73
2022-10-04T12:54:17.261Z,1.63
2022-10-04T12:58:30.119Z,1.88
2022-10-04T13:03:04.537Z,1.70
2022-10-04T13:07:29.487Z,2.17
2022-10-04T13:12:01.448Z,2.47
2022-10-04T13:21:00.191Z,2.22
2022-10-04T13:25:26.554Z,1.65
2022-10-04T13:29:41.323Z,1.77
2022-10-04T13:34:00.113Z,1.50
2022-10-04T13:38:35.641Z,1.40
2022-10-04T13:43:12.638Z,1.60
2022-10-04T13:47:28.915Z,1.70
2022-10-04T13:51:47.101Z,1.83
2022-10-04T13:56:40.333Z,1.60
2022-10-04T14:01:39.585Z,1.60
2022-10-04T14:05:44.242Z,2.00
2022-10-04T14:10:04.122Z,1.38
2022-10-04T14:14:19.600Z,2.13
2022-10-04T14:18:55.411Z,2.13
2022-10-04T14:36:26.865Z,2.13
2022-10-04T14:41:12.900Z,1.80
2022-10-04T14:45:40.477Z,1.58
2022-10-04T14:50:03.161Z,1.98
2022-10-04T14:54:36.817Z,1.98
2022-10-04T14:58:53.835Z,2.20
2022-10-04T15:03:05.789Z,2.10
2022-10-04T15:07:31.809Z,1.55
2022-10-04T15:12:21.663Z,3.22
2022-10-04T15:16:28.769Z,1.60
2022-10-04T15:20:47.278Z,2.47
2022-10-04T15:24:51.255Z,3.28
2022-10-04T15:29:06.646Z,2.60
2022-10-04T15:33:30.765Z,3.30
2022-10-04T15:37:45.984Z,10.63
2022-10-04T15:42:07.989Z,2.67
2022-10-04T15:46:40.521Z,4.43
2022-10-04T15:51:07.399Z,2.35
2022-10-04T15:55:30.264Z,5.35
2022-10-04T15:59:53.434Z,2.35
2022-10-04T16:04:21.613Z,2.88
2022-10-04T16:08:48.551Z,7.28
2022-10-04T16:13:14.227Z,2.90
2022-10-04T16:17:46.830Z,6.85
2022-10-04T16:21:54.470Z,5.00
2022-10-04T16:26:09.457Z,3.67
2022-10-04T16:30:27.228Z,3.65
2022-10-04T16:34:45.462Z,4.00
2022-10-04T16:39:09.618Z,4.63
2022-10-04T16:43:26.984Z,5.30
2022-10-04T16:47:38.257Z,5.47
2022-10-04T16:51:55.824Z,4.72
2022-10-04T16:56:09.569Z,4.57
2022-10-04T17:00:38.375Z,4.43
2022-10-04T17:05:18.596Z,5.53
2022-10-04T17:09:47.569Z,4.65
2022-10-04T17:14:06.773Z,5.07
2022-10-04T17:18:38.582Z,6.15
2022-10-04T17:23:23.351Z,5.40
2022-10-04T17:27:45.286Z,6.55
2022-10-04T17:32:16.378Z,7.32
2022-10-04T17:36:33.570Z,50.78
2022-10-04T17:40:47.703Z,140.35
2022-10-04T17:45:11.731Z,20.05
2022-10-04T17:50:01.628Z,40.88
2022-10-04T17:58:53.729Z,11.38
2022-10-04T18:03:19.377Z,12.15
2022-10-04T18:07:44.048Z,29.58
2022-10-04T18:11:52.400Z,20.33
2022-10-04T18:16:31.457Z,11.40
2022-10-04T18:20:58.573Z,9.35
2022-10-04T18:25:26.196Z,11.75
2022-10-04T18:29:43.090Z,20.02
2022-10-04T18:33:51.276Z,11.40
2022-10-04T18:38:11.685Z,20.45
2022-10-04T18:42:29.714Z,11.65
2022-10-04T18:46:40.118Z,9.57
2022-10-04T18:50:47.260Z,8.60
2022-10-04T18:55:07.634Z,9.32
2022-10-04T18:59:54.765Z,10.07
2022-10-04T19:04:02.451Z,12.45
2022-10-04T19:08:41.826Z,12.90
2022-10-04T19:13:06.030Z,9.90
2022-10-04T19:17:21.302Z,11.15
2022-10-04T19:21:36.810Z,10.13
2022-10-04T19:26:19.081Z,11.50
2022-10-04T19:30:52.190Z,14.60
2022-10-04T19:35:32.758Z,14.85
2022-10-04T19:40:09.302Z,25.73
2022-10-04T19:44:36.885Z,21.25
2022-10-04T19:48:50.029Z,19.70
2022-10-04T19:52:57.474Z,45.03
2022-10-04T19:57:02.196Z,107.65
2022-10-04T20:01:14.041Z,105.75
2022-10-04T20:05:25.493Z,80.70
2022-10-04T20:09:51.695Z,53.25
2022-10-04T20:14:02.678Z,50.95
2022-10-04T20:18:32.213Z,36.30
2022-10-04T20:22:55.527Z,36.03
2022-10-04T20:27:01.345Z,27.38
2022-10-04T20:31:06.550Z,28.08
2022-10-04T20:35:32.631Z,27.08
2022-10-04T20:39:40.724Z,20.80
2022-10-04T20:44:01.869Z,27.93
2022-10-04T20:48:13.101Z,24.60
2022-10-04T20:52:15.523Z,25.80
2022-10-04T20:56:30.446Z,31.30
2022-10-04T21:00:34.646Z,30.65
2022-10-04T21:04:44.282Z,35.80
2022-10-04T21:08:47.234Z,29.08
2022-10-04T21:12:50.050Z,25.50
2022-10-04T21:16:56.535Z,30.55
2022-10-04T21:21:01.970Z,28.80
2022-10-04T21:25:06.467Z,28.73
2022-10-04T21:29:08.769Z,28.52
2022-10-04T21:33:10.496Z,27.92
2022-10-04T21:37:12.391Z,27.48
2022-10-04T21:41:14.043Z,27.55
2022-10-04T21:45:16.127Z,30.35
2022-10-04T21:49:17.728Z,25.17
2022-10-04T21:53:20.104Z,24.67
2022-10-04T21:57:23.989Z,24.60
2022-10-04T22:01:25.948Z,19.35
2022-10-04T22:05:27.663Z,23.98
2022-10-04T22:09:29.833Z,39.55
2022-10-04T22:13:31.638Z,37.40
2022-10-04T22:17:33.804Z,49.70
2022-10-04T22:21:35.542Z,41.35
2022-10-04T22:25:37.402Z,40.38
2022-10-04T22:29:39.354Z,43.33
2022-10-04T22:33:43.513Z,32.00
2022-10-04T22:37:46.413Z,33.78
2022-10-04T22:41:54.089Z,38.22
2022-10-04T22:45:56.195Z,54.85
2022-10-04T22:49:58.284Z,52.85
2022-10-04T22:54:00.391Z,38.60
2022-10-04T22:58:03.169Z,31.90
2022-10-04T23:02:16.148Z,30.00
2022-10-04T23:06:18.013Z,23.48
2022-10-04T23:10:19.930Z,21.27
2022-10-04T23:14:21.898Z,17.75
2022-10-04T23:18:23.558Z,17.15
2022-10-04T23:22:28.383Z,16.77
2022-10-04T23:26:38.528Z,14.52
2022-10-04T23:30:40.837Z,15.73
2022-10-04T23:34:46.584Z,15.40
2022-10-04T23:38:54.162Z,17.55
2022-10-04T23:42:56.869Z,16.80
2022-10-04T23:46:59.061Z,21.35
2022-10-04T23:51:00.992Z,17.65
2022-10-04T23:55:10.691Z,18.67
2022-10-04T23:59:17.355Z,20.67
